Flight Track Log - Related Links

Times and Time Zones

All times are in EDT time to prevent confusion due to time zone crossing. See the C-FHNX flight status page for this flight to view local times or setup timezone preferences in your user account.

Time Position Orientation Groundspeed Altitude Reporting Facility
EDT Latitude Longitude Course Direction KTS MPH feet Rate Location/Type
Sun 12:18:51 PM 45.2833 -75.6833 246° West 150 173 1,400  Level Montreal Center
Sun 12:19:51 PM 45.2500 -75.7333 227° Southwest 200 230 3,100 2,100 Climbing Montreal Center
Sun 12:20:51 PM 45.2333 -75.8333 257° West 270 311 5,600 3,250 Climbing Montreal Center
Sun 12:21:51 PM 45.2333 -75.9500 270° West 260 299 9,600 3,000 Climbing Montreal Center
Sun 12:22:00 PM 45.1627 -76.5177 247° West  Level FlightAware Approximate
Sun 12:22:51 PM 45.2333 -76.0333 270° West 300 345 11,600  Level Montreal Center
Sun 12:23:00 PM 45.1129 -76.6798 247° West  Level FlightAware Approximate
Sun 12:23:51 PM 45.2333 -76.1833 270° West 330 380 14,800  Level Montreal Center
Sun 12:24:00 PM 45.0629 -76.8416 246° West  Level FlightAware Approximate
Sun 12:24:51 PM 45.2167 -76.3000 259° West 350 403 17,400  Level Montreal Center
Sun 12:25:51 PM 45.1667 -76.4500 245° Southwest 360 414 20,400 2,300 Climbing Montreal Center
Sun 12:26:51 PM 45.1333 -76.5667 248° West 360 414 22,000 1,800 Climbing Montreal Center
Sun 12:27:51 PM 45.1000 -76.7000 251° West 360 414 24,000 2,350 Climbing Montreal Center
Sun 12:28:51 PM 45.0667 -76.8500 253° West 360 414 26,700 2,000 Climbing Montreal Center
Sun 12:29:51 PM 45.0167 -76.9667 239° Southwest 350 403 28,000 650 Climbing Montreal Center
Sun 12:30:51 PM 44.9833 -77.0833 248° West 340 391 28,000  Level Montreal Center
Sun 12:31:51 PM 44.9500 -77.2000 248° West 350 403 28,000  Level Montreal Center
Sun 12:32:51 PM 44.9167 -77.3333 251° West 350 403 28,000  Level Montreal Center
Sun 12:33:51 PM 44.8667 -77.4500 239° Southwest 360 414 28,000  Level Montreal Center
Sun 12:34:51 PM 44.8333 -77.6167 254° West 400 460 28,000  Level Montreal Center
Sun 12:35:51 PM 44.7667 -77.7667 238° Southwest 410 472 28,000  Level Montreal Center
Sun 12:36:51 PM 44.7167 -77.9167 245° Southwest 410 472 28,000  Level Montreal Center
Sun 12:37:51 PM 44.6667 -78.0667 245° Southwest 420 483 28,000  Level Montreal Center
Sun 12:38:51 PM 44.6000 -78.2000 235° Southwest 420 483 28,000  Level Montreal Center
Sun 12:39:51 PM 44.5500 -78.3333 242° Southwest 420 483 28,000  Level Montreal Center
Sun 12:40:51 PM 44.4833 -78.4833 238° Southwest 420 483 28,000 -100 Level Montreal Center
Sun 12:41:51 PM 44.4167 -78.6167 235° Southwest 420 483 27,800 -1,100 Descending Montreal Center
Sun 12:42:51 PM 44.3667 -78.7500 242° Southwest 420 483 25,800 -2,150 Descending Montreal Center
Sun 12:43:51 PM 44.3000 -78.8833 235° Southwest 400 460 23,500 -2,300 Descending Montreal Center
Sun 12:44:51 PM 44.2333 -79.0000 231° Southwest 400 460 21,200 -2,400 Descending Montreal Center
Sun 12:45:51 PM 44.1500 -79.1167 225° Southwest 390 449 18,700 -1,781 Descending Montreal Center
Sun 12:46:59 PM 44.0833 -79.2000 222° Southwest 360 414 17,400 -1,266 Descending Toronto Center
Sun 12:47:59 PM 44.0167 -79.2667 216° Southwest 330 380 16,000 -1,550 Descending Toronto Center
Sun 12:48:59 PM 43.9333 -79.3500 216° Southwest 340 391 14,300 -1,700 Descending Toronto Center
Sun 12:49:59 PM 43.8500 -79.4167 210° Southwest 350 403 12,600 -1,600 Descending Toronto Center
Sun 12:50:59 PM 43.8167 -79.5333 248° West 320 368 11,100 -1,550 Descending Toronto Center
Sun 12:51:59 PM 43.7667 -79.6333 235° Southwest 290 334 9,500 -1,450 Descending Toronto Center
Sun 12:52:59 PM 43.7333 -79.7333 245° Southwest 280 322 8,200 -1,450 Descending Toronto Center
Sun 12:53:59 PM 43.6833 -79.8000 224° Southwest 250 288 6,600 -1,550 Descending Toronto Center
Sun 12:54:59 PM 43.6333 -79.8333 206° Southwest 240 276 5,100 -1,300 Descending Toronto Center
Sun 12:55:59 PM 43.5833 -79.8667 206° Southwest 220 253 4,000 -800 Descending Toronto Center
Sun 12:56:59 PM 43.5667 -79.8000 109° East 210 242 3,500 -750 Descending Toronto Center
Sun 12:57:59 PM 43.6000 -79.7500 47° Northeast 190 219 2,500 -950 Descending Toronto Center
Sun 12:58:59 PM 43.6333 -79.7000 47° Northeast 170 196 1,600 -800 Descending Toronto Center
Sun 12:59:59 PM 43.6500 -79.6500 65° Northeast 150 173 900 -500 Descending Toronto Center
Sun 01:00:59 PM 43.6833 -79.6333 20° North 90 104 600 -200 Descending Toronto Center
Sun 01:01:59 PM 43.6833 -79.6167 90° East 40 46 500 -100 Descending Toronto Center

Login

Don't have an account? Register now (free) for customized features, flight alerts, and more!